sensor_id;sensor_type;location;lat;lon;timestamp;P1;durP1;ratioP1;P2;durP2;ratioP2
15331;SDS011;7766;51.534;6.722;2023-11-22T00:02:04;11.00;;;7.97;;
15331;SDS011;7766;51.534;6.722;2023-11-22T00:04:29;11.07;;;7.53;;
15331;SDS011;7766;51.534;6.722;2023-11-22T00:06:55;9.93;;;7.37;;
15331;SDS011;7766;51.534;6.722;2023-11-22T00:09:21;10.50;;;7.03;;
15331;SDS011;7766;51.534;6.722;2023-11-22T00:11:48;10.40;;;7.80;;
15331;SDS011;7766;51.534;6.722;2023-11-22T00:14:14;11.63;;;7.73;;
15331;SDS011;7766;51.534;6.722;2023-11-22T00:16:40;9.70;;;7.53;;
15331;SDS011;7766;51.534;6.722;2023-11-22T00:19:07;13.67;;;8.07;;
15331;SDS011;7766;51.534;6.722;2023-11-22T00:21:33;12.27;;;6.57;;
15331;SDS011;7766;51.534;6.722;2023-11-22T00:24:00;10.23;;;7.73;;
15331;SDS011;7766;51.534;6.722;2023-11-22T00:26:26;8.93;;;7.07;;
15331;SDS011;7766;51.534;6.722;2023-11-22T00:28:52;8.33;;;6.73;;
15331;SDS011;7766;51.534;6.722;2023-11-22T00:31:19;6.80;;;5.43;;
15331;SDS011;7766;51.534;6.722;2023-11-22T00:33:44;8.23;;;6.43;;
15331;SDS011;7766;51.534;6.722;2023-11-22T00:36:11;8.13;;;6.13;;
15331;SDS011;7766;51.534;6.722;2023-11-22T00:38:37;7.90;;;6.03;;
15331;SDS011;7766;51.534;6.722;2023-11-22T00:41:04;7.60;;;6.10;;
15331;SDS011;7766;51.534;6.722;2023-11-22T00:43:30;9.33;;;5.97;;
15331;SDS011;7766;51.534;6.722;2023-11-22T00:45:56;8.50;;;5.37;;
15331;SDS011;7766;51.534;6.722;2023-11-22T00:48:22;7.00;;;5.50;;
15331;SDS011;7766;51.534;6.722;2023-11-22T00:50:48;9.77;;;6.07;;
15331;SDS011;7766;51.534;6.722;2023-11-22T00:53:14;7.13;;;5.67;;
15331;SDS011;7766;51.534;6.722;2023-11-22T00:55:40;8.67;;;6.20;;
15331;SDS011;7766;51.534;6.722;2023-11-22T00:58:07;9.57;;;6.20;;
15331;SDS011;7766;51.534;6.722;2023-11-22T01:00:33;9.93;;;6.37;;
15331;SDS011;7766;51.534;6.722;2023-11-22T01:02:59;7.43;;;5.93;;
15331;SDS011;7766;51.534;6.722;2023-11-22T01:05:25;9.50;;;6.43;;
15331;SDS011;7766;51.534;6.722;2023-11-22T01:07:51;8.37;;;6.40;;
15331;SDS011;7766;51.534;6.722;2023-11-22T01:10:17;8.43;;;6.37;;
15331;SDS011;7766;51.534;6.722;2023-11-22T01:12:43;9.80;;;6.97;;
15331;SDS011;7766;51.534;6.722;2023-11-22T01:15:09;8.80;;;6.40;;
15331;SDS011;7766;51.534;6.722;2023-11-22T01:17:34;8.50;;;6.03;;
15331;SDS011;7766;51.534;6.722;2023-11-22T01:20:01;11.50;;;6.83;;
15331;SDS011;7766;51.534;6.722;2023-11-22T01:22:28;9.87;;;6.63;;
15331;SDS011;7766;51.534;6.722;2023-11-22T01:24:54;10.60;;;7.20;;
15331;SDS011;7766;51.534;6.722;2023-11-22T01:27:19;10.33;;;7.30;;
15331;SDS011;7766;51.534;6.722;2023-11-22T01:29:45;26.63;;;12.90;;
15331;SDS011;7766;51.534;6.722;2023-11-22T01:32:12;14.40;;;8.80;;
15331;SDS011;7766;51.534;6.722;2023-11-22T01:34:37;15.57;;;8.80;;
15331;SDS011;7766;51.534;6.722;2023-11-22T01:37:04;13.30;;;9.27;;
15331;SDS011;7766;51.534;6.722;2023-11-22T01:39:30;11.30;;;7.97;;
15331;SDS011;7766;51.534;6.722;2023-11-22T01:41:56;12.73;;;8.60;;
15331;SDS011;7766;51.534;6.722;2023-11-22T01:44:22;13.87;;;8.60;;
15331;SDS011;7766;51.534;6.722;2023-11-22T01:46:48;12.93;;;9.13;;
15331;SDS011;7766;51.534;6.722;2023-11-22T01:49:14;14.40;;;9.90;;
15331;SDS011;7766;51.534;6.722;2023-11-22T01:51:40;13.47;;;9.47;;
15331;SDS011;7766;51.534;6.722;2023-11-22T01:54:06;14.63;;;9.97;;
15331;SDS011;7766;51.534;6.722;2023-11-22T01:56:33;16.40;;;10.53;;
15331;SDS011;7766;51.534;6.722;2023-11-22T01:59:00;15.17;;;10.73;;
15331;SDS011;7766;51.534;6.722;2023-11-22T02:01:27;15.40;;;10.10;;
15331;SDS011;7766;51.534;6.722;2023-11-22T02:03:53;16.67;;;10.43;;
15331;SDS011;7766;51.534;6.722;2023-11-22T02:06:20;17.17;;;9.77;;
15331;SDS011;7766;51.534;6.722;2023-11-22T02:08:46;15.30;;;10.47;;
15331;SDS011;7766;51.534;6.722;2023-11-22T02:11:13;17.43;;;11.13;;
15331;SDS011;7766;51.534;6.722;2023-11-22T02:13:46;14.03;;;9.87;;
15331;SDS011;7766;51.534;6.722;2023-11-22T02:16:13;14.00;;;9.87;;
15331;SDS011;7766;51.534;6.722;2023-11-22T02:18:39;15.33;;;9.37;;
15331;SDS011;7766;51.534;6.722;2023-11-22T02:21:07;17.60;;;9.90;;
15331;SDS011;7766;51.534;6.722;2023-11-22T02:23:33;16.57;;;10.07;;
15331;SDS011;7766;51.534;6.722;2023-11-22T02:25:59;17.03;;;10.70;;
15331;SDS011;7766;51.534;6.722;2023-11-22T02:28:25;18.40;;;10.87;;
15331;SDS011;7766;51.534;6.722;2023-11-22T02:30:51;16.23;;;10.30;;
15331;SDS011;7766;51.534;6.722;2023-11-22T02:33:17;15.70;;;10.67;;
15331;SDS011;7766;51.534;6.722;2023-11-22T02:35:44;16.73;;;10.43;;
15331;SDS011;7766;51.534;6.722;2023-11-22T02:38:09;16.23;;;9.93;;
15331;SDS011;7766;51.534;6.722;2023-11-22T02:40:35;15.37;;;10.40;;
15331;SDS011;7766;51.534;6.722;2023-11-22T02:43:02;14.80;;;10.00;;
15331;SDS011;7766;51.534;6.722;2023-11-22T02:45:32;17.43;;;10.67;;
15331;SDS011;7766;51.534;6.722;2023-11-22T02:47:58;16.33;;;11.10;;
15331;SDS011;7766;51.534;6.722;2023-11-22T02:50:26;15.90;;;10.60;;
15331;SDS011;7766;51.534;6.722;2023-11-22T02:52:52;15.43;;;10.10;;
15331;SDS011;7766;51.534;6.722;2023-11-22T02:55:18;19.53;;;10.50;;
15331;SDS011;7766;51.534;6.722;2023-11-22T02:57:44;15.87;;;10.07;;
15331;SDS011;7766;51.534;6.722;2023-11-22T03:00:11;17.07;;;11.13;;
15331;SDS011;7766;51.534;6.722;2023-11-22T03:02:40;18.70;;;11.73;;
15331;SDS011;7766;51.534;6.722;2023-11-22T03:05:10;16.77;;;10.37;;
15331;SDS011;7766;51.534;6.722;2023-11-22T03:07:36;18.77;;;11.30;;
15331;SDS011;7766;51.534;6.722;2023-11-22T03:10:03;18.03;;;11.40;;
15331;SDS011;7766;51.534;6.722;2023-11-22T03:12:29;20.93;;;11.47;;
15331;SDS011;7766;51.534;6.722;2023-11-22T03:15:14;17.47;;;10.67;;
15331;SDS011;7766;51.534;6.722;2023-11-22T03:17:41;18.27;;;10.83;;
15331;SDS011;7766;51.534;6.722;2023-11-22T03:20:09;19.90;;;11.47;;
15331;SDS011;7766;51.534;6.722;2023-11-22T03:22:36;16.37;;;11.00;;
15331;SDS011;7766;51.534;6.722;2023-11-22T03:25:02;21.60;;;12.00;;
15331;SDS011;7766;51.534;6.722;2023-11-22T03:27:28;17.80;;;11.67;;
15331;SDS011;7766;51.534;6.722;2023-11-22T03:29:54;17.33;;;10.97;;
15331;SDS011;7766;51.534;6.722;2023-11-22T03:32:20;21.43;;;12.80;;
15331;SDS011;7766;51.534;6.722;2023-11-22T03:34:46;20.50;;;12.30;;
15331;SDS011;7766;51.534;6.722;2023-11-22T03:37:12;19.73;;;11.70;;
15331;SDS011;7766;51.534;6.722;2023-11-22T03:39:38;20.63;;;13.23;;
15331;SDS011;7766;51.534;6.722;2023-11-22T03:42:04;19.53;;;12.03;;
15331;SDS011;7766;51.534;6.722;2023-11-22T03:44:30;18.00;;;11.50;;
15331;SDS011;7766;51.534;6.722;2023-11-22T03:46:56;17.27;;;12.07;;
15331;SDS011;7766;51.534;6.722;2023-11-22T03:49:22;19.60;;;12.90;;
15331;SDS011;7766;51.534;6.722;2023-11-22T03:51:47;18.30;;;12.53;;
15331;SDS011;7766;51.534;6.722;2023-11-22T03:54:13;20.33;;;12.30;;
15331;SDS011;7766;51.534;6.722;2023-11-22T03:56:39;19.47;;;12.40;;
15331;SDS011;7766;51.534;6.722;2023-11-22T03:59:05;18.70;;;11.90;;
15331;SDS011;7766;51.534;6.722;2023-11-22T04:01:31;19.87;;;11.80;;
15331;SDS011;7766;51.534;6.722;2023-11-22T04:03:57;17.67;;;11.57;;
15331;SDS011;7766;51.534;6.722;2023-11-22T04:06:23;16.97;;;12.00;;
15331;SDS011;7766;51.534;6.722;2023-11-22T04:08:49;18.77;;;11.73;;
15331;SDS011;7766;51.534;6.722;2023-11-22T04:11:15;18.43;;;11.53;;
15331;SDS011;7766;51.534;6.722;2023-11-22T04:13:42;18.30;;;11.53;;
15331;SDS011;7766;51.534;6.722;2023-11-22T04:16:08;19.60;;;11.67;;
15331;SDS011;7766;51.534;6.722;2023-11-22T04:18:40;16.43;;;10.87;;
15331;SDS011;7766;51.534;6.722;2023-11-22T04:21:07;18.20;;;11.83;;
15331;SDS011;7766;51.534;6.722;2023-11-22T04:23:33;16.90;;;11.00;;
15331;SDS011;7766;51.534;6.722;2023-11-22T04:25:59;18.63;;;11.37;;
15331;SDS011;7766;51.534;6.722;2023-11-22T04:28:26;16.90;;;11.37;;
15331;SDS011;7766;51.534;6.722;2023-11-22T04:30:52;19.17;;;11.30;;
15331;SDS011;7766;51.534;6.722;2023-11-22T04:33:18;18.40;;;10.97;;
15331;SDS011;7766;51.534;6.722;2023-11-22T04:35:44;16.23;;;10.27;;
15331;SDS011;7766;51.534;6.722;2023-11-22T04:38:11;17.43;;;10.37;;
15331;SDS011;7766;51.534;6.722;2023-11-22T04:40:37;16.50;;;10.60;;
15331;SDS011;7766;51.534;6.722;2023-11-22T04:43:03;16.93;;;10.43;;
15331;SDS011;7766;51.534;6.722;2023-11-22T04:45:29;16.43;;;10.33;;
15331;SDS011;7766;51.534;6.722;2023-11-22T04:47:55;18.17;;;10.80;;
15331;SDS011;7766;51.534;6.722;2023-11-22T04:50:24;16.33;;;10.03;;
15331;SDS011;7766;51.534;6.722;2023-11-22T04:52:50;14.97;;;10.67;;
15331;SDS011;7766;51.534;6.722;2023-11-22T04:55:16;17.43;;;10.93;;
15331;SDS011;7766;51.534;6.722;2023-11-22T04:57:42;19.53;;;11.20;;
15331;SDS011;7766;51.534;6.722;2023-11-22T05:00:08;18.27;;;11.17;;
15331;SDS011;7766;51.534;6.722;2023-11-22T05:02:35;15.53;;;9.40;;
15331;SDS011;7766;51.534;6.722;2023-11-22T05:05:01;16.33;;;10.57;;
15331;SDS011;7766;51.534;6.722;2023-11-22T05:07:26;16.23;;;10.03;;
15331;SDS011;7766;51.534;6.722;2023-11-22T05:09:52;17.60;;;9.93;;
15331;SDS011;7766;51.534;6.722;2023-11-22T05:12:19;17.10;;;9.77;;
15331;SDS011;7766;51.534;6.722;2023-11-22T05:14:45;17.50;;;10.10;;
15331;SDS011;7766;51.534;6.722;2023-11-22T05:17:11;17.47;;;10.50;;
15331;SDS011;7766;51.534;6.722;2023-11-22T05:19:37;19.77;;;11.07;;
15331;SDS011;7766;51.534;6.722;2023-11-22T05:22:03;15.27;;;10.23;;
15331;SDS011;7766;51.534;6.722;2023-11-22T05:24:29;16.03;;;9.73;;
15331;SDS011;7766;51.534;6.722;2023-11-22T05:26:55;17.17;;;10.23;;
15331;SDS011;7766;51.534;6.722;2023-11-22T05:29:21;19.37;;;10.53;;
15331;SDS011;7766;51.534;6.722;2023-11-22T05:31:47;21.10;;;10.63;;
15331;SDS011;7766;51.534;6.722;2023-11-22T05:34:13;16.43;;;9.93;;
15331;SDS011;7766;51.534;6.722;2023-11-22T05:36:39;17.00;;;10.00;;
15331;SDS011;7766;51.534;6.722;2023-11-22T05:39:05;18.47;;;10.57;;
15331;SDS011;7766;51.534;6.722;2023-11-22T05:41:31;17.37;;;10.63;;
15331;SDS011;7766;51.534;6.722;2023-11-22T05:43:57;18.37;;;11.27;;
15331;SDS011;7766;51.534;6.722;2023-11-22T05:46:23;19.60;;;10.93;;
15331;SDS011;7766;51.534;6.722;2023-11-22T05:48:52;17.00;;;10.40;;
15331;SDS011;7766;51.534;6.722;2023-11-22T05:51:19;18.93;;;10.70;;
15331;SDS011;7766;51.534;6.722;2023-11-22T05:53:45;15.10;;;10.10;;
15331;SDS011;7766;51.534;6.722;2023-11-22T05:56:11;16.07;;;9.63;;
15331;SDS011;7766;51.534;6.722;2023-11-22T05:58:37;16.67;;;10.23;;
15331;SDS011;7766;51.534;6.722;2023-11-22T06:01:07;16.13;;;9.83;;
15331;SDS011;7766;51.534;6.722;2023-11-22T06:03:33;16.73;;;10.23;;
15331;SDS011;7766;51.534;6.722;2023-11-22T06:06:00;16.43;;;9.57;;
15331;SDS011;7766;51.534;6.722;2023-11-22T06:08:26;13.80;;;9.40;;
15331;SDS011;7766;51.534;6.722;2023-11-22T06:10:51;17.03;;;9.00;;
15331;SDS011;7766;51.534;6.722;2023-11-22T06:13:18;13.90;;;9.03;;
15331;SDS011;7766;51.534;6.722;2023-11-22T06:15:44;14.03;;;9.10;;
15331;SDS011;7766;51.534;6.722;2023-11-22T06:18:10;16.43;;;9.50;;
15331;SDS011;7766;51.534;6.722;2023-11-22T06:20:39;18.13;;;10.10;;
15331;SDS011;7766;51.534;6.722;2023-11-22T06:23:05;16.23;;;9.13;;
15331;SDS011;7766;51.534;6.722;2023-11-22T06:25:30;15.83;;;9.83;;
15331;SDS011;7766;51.534;6.722;2023-11-22T06:27:56;16.83;;;9.27;;
15331;SDS011;7766;51.534;6.722;2023-11-22T06:30:22;16.07;;;9.70;;
15331;SDS011;7766;51.534;6.722;2023-11-22T06:32:50;17.43;;;10.40;;
15331;SDS011;7766;51.534;6.722;2023-11-22T06:35:15;15.53;;;9.60;;
15331;SDS011;7766;51.534;6.722;2023-11-22T06:37:42;17.27;;;10.37;;
15331;SDS011;7766;51.534;6.722;2023-11-22T06:40:09;18.90;;;10.83;;
15331;SDS011;7766;51.534;6.722;2023-11-22T06:42:37;18.97;;;9.57;;
15331;SDS011;7766;51.534;6.722;2023-11-22T06:45:04;15.30;;;9.43;;
15331;SDS011;7766;51.534;6.722;2023-11-22T06:47:31;15.07;;;9.00;;
15331;SDS011;7766;51.534;6.722;2023-11-22T06:49:57;16.63;;;10.23;;
15331;SDS011;7766;51.534;6.722;2023-11-22T06:52:23;17.93;;;10.53;;
15331;SDS011;7766;51.534;6.722;2023-11-22T06:54:49;17.10;;;9.73;;
15331;SDS011;7766;51.534;6.722;2023-11-22T06:57:15;15.90;;;9.67;;
15331;SDS011;7766;51.534;6.722;2023-11-22T06:59:41;13.20;;;9.00;;
15331;SDS011;7766;51.534;6.722;2023-11-22T07:02:08;18.10;;;10.17;;
15331;SDS011;7766;51.534;6.722;2023-11-22T07:04:34;15.93;;;9.47;;
15331;SDS011;7766;51.534;6.722;2023-11-22T07:07:00;17.43;;;10.20;;
15331;SDS011;7766;51.534;6.722;2023-11-22T07:09:27;19.70;;;9.87;;
15331;SDS011;7766;51.534;6.722;2023-11-22T07:11:53;14.33;;;9.33;;
15331;SDS011;7766;51.534;6.722;2023-11-22T07:14:19;16.53;;;9.67;;
15331;SDS011;7766;51.534;6.722;2023-11-22T07:16:46;14.97;;;9.20;;
15331;SDS011;7766;51.534;6.722;2023-11-22T07:19:12;16.93;;;9.87;;
15331;SDS011;7766;51.534;6.722;2023-11-22T07:21:38;17.27;;;10.47;;
15331;SDS011;7766;51.534;6.722;2023-11-22T07:24:05;18.37;;;10.13;;
15331;SDS011;7766;51.534;6.722;2023-11-22T07:26:34;15.27;;;9.60;;
15331;SDS011;7766;51.534;6.722;2023-11-22T07:29:00;16.43;;;10.33;;
15331;SDS011;7766;51.534;6.722;2023-11-22T07:31:26;17.10;;;10.17;;
15331;SDS011;7766;51.534;6.722;2023-11-22T07:33:54;16.77;;;10.23;;
15331;SDS011;7766;51.534;6.722;2023-11-22T07:36:20;19.73;;;12.40;;
15331;SDS011;7766;51.534;6.722;2023-11-22T07:38:46;17.53;;;11.60;;
15331;SDS011;7766;51.534;6.722;2023-11-22T07:41:13;19.30;;;10.93;;
15331;SDS011;7766;51.534;6.722;2023-11-22T07:43:39;17.77;;;10.97;;
15331;SDS011;7766;51.534;6.722;2023-11-22T07:46:05;17.23;;;10.50;;
15331;SDS011;7766;51.534;6.722;2023-11-22T07:48:37;18.23;;;10.87;;
15331;SDS011;7766;51.534;6.722;2023-11-22T07:51:03;18.50;;;10.97;;
15331;SDS011;7766;51.534;6.722;2023-11-22T07:53:30;17.90;;;11.23;;
15331;SDS011;7766;51.534;6.722;2023-11-22T07:55:59;17.53;;;10.50;;
15331;SDS011;7766;51.534;6.722;2023-11-22T07:58:29;17.47;;;10.50;;
15331;SDS011;7766;51.534;6.722;2023-11-22T08:00:55;18.63;;;10.13;;
15331;SDS011;7766;51.534;6.722;2023-11-22T08:03:21;15.83;;;9.77;;
15331;SDS011;7766;51.534;6.722;2023-11-22T08:05:50;16.80;;;9.13;;
15331;SDS011;7766;51.534;6.722;2023-11-22T08:08:18;15.50;;;10.03;;
15331;SDS011;7766;51.534;6.722;2023-11-22T08:10:45;16.27;;;9.50;;
15331;SDS011;7766;51.534;6.722;2023-11-22T08:13:12;14.70;;;9.17;;
15331;SDS011;7766;51.534;6.722;2023-11-22T08:15:38;14.40;;;9.30;;
15331;SDS011;7766;51.534;6.722;2023-11-22T08:18:04;18.07;;;9.93;;
15331;SDS011;7766;51.534;6.722;2023-11-22T08:20:30;16.43;;;9.60;;
15331;SDS011;7766;51.534;6.722;2023-11-22T08:22:56;15.97;;;9.83;;
15331;SDS011;7766;51.534;6.722;2023-11-22T08:25:22;21.73;;;11.43;;
15331;SDS011;7766;51.534;6.722;2023-11-22T08:27:48;13.90;;;9.73;;
15331;SDS011;7766;51.534;6.722;2023-11-22T08:30:14;14.93;;;9.47;;
15331;SDS011;7766;51.534;6.722;2023-11-22T08:32:44;14.80;;;10.00;;
15331;SDS011;7766;51.534;6.722;2023-11-22T08:35:13;16.80;;;9.33;;
15331;SDS011;7766;51.534;6.722;2023-11-22T08:37:40;16.57;;;9.57;;
15331;SDS011;7766;51.534;6.722;2023-11-22T08:40:07;13.40;;;9.00;;
15331;SDS011;7766;51.534;6.722;2023-11-22T08:42:34;13.43;;;8.67;;
15331;SDS011;7766;51.534;6.722;2023-11-22T08:45:03;13.23;;;8.70;;
15331;SDS011;7766;51.534;6.722;2023-11-22T08:47:29;16.47;;;8.90;;
15331;SDS011;7766;51.534;6.722;2023-11-22T08:49:56;12.57;;;8.50;;
15331;SDS011;7766;51.534;6.722;2023-11-22T08:52:22;12.60;;;8.57;;
15331;SDS011;7766;51.534;6.722;2023-11-22T08:54:48;11.17;;;7.87;;
15331;SDS011;7766;51.534;6.722;2023-11-22T08:57:16;10.40;;;7.40;;
15331;SDS011;7766;51.534;6.722;2023-11-22T08:59:42;9.97;;;7.67;;
15331;SDS011;7766;51.534;6.722;2023-11-22T09:02:08;10.00;;;6.93;;
15331;SDS011;7766;51.534;6.722;2023-11-22T09:04:37;10.07;;;7.20;;
15331;SDS011;7766;51.534;6.722;2023-11-22T09:07:03;9.97;;;6.70;;
15331;SDS011;7766;51.534;6.722;2023-11-22T09:09:30;8.20;;;5.90;;
15331;SDS011;7766;51.534;6.722;2023-11-22T09:11:59;7.40;;;6.03;;
15331;SDS011;7766;51.534;6.722;2023-11-22T09:14:25;7.83;;;5.97;;
15331;SDS011;7766;51.534;6.722;2023-11-22T09:16:51;8.33;;;6.33;;
15331;SDS011;7766;51.534;6.722;2023-11-22T09:19:20;9.03;;;5.77;;
15331;SDS011;7766;51.534;6.722;2023-11-22T09:21:46;8.63;;;6.00;;
15331;SDS011;7766;51.534;6.722;2023-11-22T09:24:12;8.03;;;5.63;;
15331;SDS011;7766;51.534;6.722;2023-11-22T09:26:37;6.67;;;5.10;;
15331;SDS011;7766;51.534;6.722;2023-11-22T09:29:03;7.43;;;5.40;;
15331;SDS011;7766;51.534;6.722;2023-11-22T09:31:29;8.70;;;5.83;;
15331;SDS011;7766;51.534;6.722;2023-11-22T09:33:55;8.00;;;5.80;;
15331;SDS011;7766;51.534;6.722;2023-11-22T09:36:22;6.53;;;5.60;;
15331;SDS011;7766;51.534;6.722;2023-11-22T09:38:49;8.63;;;6.10;;
15331;SDS011;7766;51.534;6.722;2023-11-22T09:41:16;8.47;;;5.83;;
15331;SDS011;7766;51.534;6.722;2023-11-22T09:43:42;5.93;;;4.97;;
15331;SDS011;7766;51.534;6.722;2023-11-22T09:46:09;7.97;;;5.87;;
15331;SDS011;7766;51.534;6.722;2023-11-22T09:48:36;7.90;;;5.67;;
15331;SDS011;7766;51.534;6.722;2023-11-22T09:51:09;7.37;;;5.33;;
15331;SDS011;7766;51.534;6.722;2023-11-22T09:53:47;8.27;;;5.50;;
15331;SDS011;7766;51.534;6.722;2023-11-22T09:56:21;8.97;;;5.90;;
15331;SDS011;7766;51.534;6.722;2023-11-22T09:58:47;8.43;;;5.40;;
15331;SDS011;7766;51.534;6.722;2023-11-22T10:01:14;8.13;;;5.37;;
15331;SDS011;7766;51.534;6.722;2023-11-22T10:03:41;8.60;;;5.37;;
15331;SDS011;7766;51.534;6.722;2023-11-22T10:06:07;9.10;;;6.17;;
15331;SDS011;7766;51.534;6.722;2023-11-22T10:08:33;9.53;;;6.43;;
15331;SDS011;7766;51.534;6.722;2023-11-22T10:11:02;10.03;;;6.80;;
15331;SDS011;7766;51.534;6.722;2023-11-22T10:13:29;11.00;;;5.47;;
15331;SDS011;7766;51.534;6.722;2023-11-22T10:15:55;8.20;;;5.60;;
15331;SDS011;7766;51.534;6.722;2023-11-22T10:18:21;9.70;;;5.97;;
15331;SDS011;7766;51.534;6.722;2023-11-22T10:20:47;9.47;;;6.27;;
15331;SDS011;7766;51.534;6.722;2023-11-22T10:23:15;10.23;;;6.67;;
15331;SDS011;7766;51.534;6.722;2023-11-22T10:25:46;8.20;;;5.93;;
15331;SDS011;7766;51.534;6.722;2023-11-22T10:28:14;7.73;;;5.67;;
15331;SDS011;7766;51.534;6.722;2023-11-22T10:30:42;8.80;;;5.90;;
15331;SDS011;7766;51.534;6.722;2023-11-22T10:33:09;8.20;;;6.10;;
15331;SDS011;7766;51.534;6.722;2023-11-22T10:35:38;6.77;;;5.07;;
15331;SDS011;7766;51.534;6.722;2023-11-22T10:38:08;7.27;;;5.17;;
15331;SDS011;7766;51.534;6.722;2023-11-22T10:40:34;6.60;;;5.43;;
15331;SDS011;7766;51.534;6.722;2023-11-22T10:43:02;13.77;;;5.67;;
15331;SDS011;7766;51.534;6.722;2023-11-22T10:45:29;7.80;;;5.17;;
15331;SDS011;7766;51.534;6.722;2023-11-22T10:47:58;8.30;;;5.50;;
15331;SDS011;7766;51.534;6.722;2023-11-22T10:50:25;7.40;;;5.27;;
15331;SDS011;7766;51.534;6.722;2023-11-22T10:52:51;7.50;;;5.80;;
15331;SDS011;7766;51.534;6.722;2023-11-22T10:55:20;14.50;;;7.23;;
15331;SDS011;7766;51.534;6.722;2023-11-22T10:57:47;11.37;;;6.87;;
15331;SDS011;7766;51.534;6.722;2023-11-22T11:00:19;8.17;;;4.90;;
15331;SDS011;7766;51.534;6.722;2023-11-22T11:02:48;5.73;;;4.63;;
15331;SDS011;7766;51.534;6.722;2023-11-22T11:05:16;8.10;;;5.23;;
15331;SDS011;7766;51.534;6.722;2023-11-22T11:07:44;8.87;;;5.23;;
15331;SDS011;7766;51.534;6.722;2023-11-22T11:10:16;7.33;;;5.00;;
15331;SDS011;7766;51.534;6.722;2023-11-22T11:12:43;9.57;;;5.20;;
15331;SDS011;7766;51.534;6.722;2023-11-22T11:15:10;7.10;;;4.90;;
15331;SDS011;7766;51.534;6.722;2023-11-22T11:17:36;6.50;;;4.67;;
15331;SDS011;7766;51.534;6.722;2023-11-22T11:20:04;6.97;;;4.50;;
15331;SDS011;7766;51.534;6.722;2023-11-22T11:22:34;6.93;;;4.43;;
15331;SDS011;7766;51.534;6.722;2023-11-22T11:25:01;15.00;;;9.33;;
15331;SDS011;7766;51.534;6.722;2023-11-22T11:27:34;15.20;;;9.20;;
15331;SDS011;7766;51.534;6.722;2023-11-22T11:32:49;7.67;;;4.17;;
15331;SDS011;7766;51.534;6.722;2023-11-22T11:35:17;5.77;;;4.03;;
15331;SDS011;7766;51.534;6.722;2023-11-22T11:37:46;6.13;;;3.73;;
15331;SDS011;7766;51.534;6.722;2023-11-22T11:40:31;6.13;;;3.67;;
15331;SDS011;7766;51.534;6.722;2023-11-22T11:42:57;4.40;;;3.20;;
15331;SDS011;7766;51.534;6.722;2023-11-22T11:45:22;5.43;;;3.73;;
15331;SDS011;7766;51.534;6.722;2023-11-22T11:47:48;6.23;;;3.83;;
15331;SDS011;7766;51.534;6.722;2023-11-22T11:50:16;7.00;;;4.33;;
15331;SDS011;7766;51.534;6.722;2023-11-22T11:52:42;5.40;;;3.67;;
15331;SDS011;7766;51.534;6.722;2023-11-22T11:55:07;4.80;;;3.60;;
15331;SDS011;7766;51.534;6.722;2023-11-22T11:57:33;4.90;;;3.37;;
15331;SDS011;7766;51.534;6.722;2023-11-22T12:00:01;5.23;;;3.47;;
15331;SDS011;7766;51.534;6.722;2023-11-22T12:02:29;8.53;;;5.27;;
15331;SDS011;7766;51.534;6.722;2023-11-22T12:04:55;9.10;;;5.20;;
15331;SDS011;7766;51.534;6.722;2023-11-22T12:07:21;13.37;;;7.90;;
15331;SDS011;7766;51.534;6.722;2023-11-22T12:09:47;18.20;;;12.00;;
15331;SDS011;7766;51.534;6.722;2023-11-22T12:12:13;25.27;;;15.47;;
15331;SDS011;7766;51.534;6.722;2023-11-22T12:14:40;5.77;;;4.00;;
15331;SDS011;7766;51.534;6.722;2023-11-22T12:17:06;4.53;;;3.10;;
15331;SDS011;7766;51.534;6.722;2023-11-22T12:19:33;4.60;;;3.40;;
15331;SDS011;7766;51.534;6.722;2023-11-22T12:21:59;5.57;;;3.63;;
15331;SDS011;7766;51.534;6.722;2023-11-22T12:24:25;4.80;;;3.60;;
15331;SDS011;7766;51.534;6.722;2023-11-22T12:26:50;4.10;;;3.17;;
15331;SDS011;7766;51.534;6.722;2023-11-22T12:29:17;5.90;;;3.47;;
15331;SDS011;7766;51.534;6.722;2023-11-22T12:31:50;4.57;;;3.30;;
15331;SDS011;7766;51.534;6.722;2023-11-22T12:34:17;11.87;;;6.33;;
15331;SDS011;7766;51.534;6.722;2023-11-22T12:36:44;5.93;;;4.50;;
15331;SDS011;7766;51.534;6.722;2023-11-22T12:39:12;8.20;;;4.20;;
15331;SDS011;7766;51.534;6.722;2023-11-22T12:41:48;6.27;;;4.23;;
15331;SDS011;7766;51.534;6.722;2023-11-22T12:44:15;17.13;;;10.90;;
15331;SDS011;7766;51.534;6.722;2023-11-22T12:46:52;27.03;;;15.30;;
15331;SDS011;7766;51.534;6.722;2023-11-22T12:49:24;8.83;;;5.27;;
15331;SDS011;7766;51.534;6.722;2023-11-22T12:51:54;9.33;;;5.80;;
15331;SDS011;7766;51.534;6.722;2023-11-22T12:54:22;8.67;;;4.80;;
15331;SDS011;7766;51.534;6.722;2023-11-22T12:56:48;7.00;;;4.77;;
15331;SDS011;7766;51.534;6.722;2023-11-22T12:59:15;11.87;;;4.93;;
15331;SDS011;7766;51.534;6.722;2023-11-22T13:01:42;7.87;;;4.90;;
15331;SDS011;7766;51.534;6.722;2023-11-22T13:04:08;7.20;;;4.57;;
15331;SDS011;7766;51.534;6.722;2023-11-22T13:06:34;8.47;;;4.40;;
15331;SDS011;7766;51.534;6.722;2023-11-22T13:09:00;10.73;;;4.93;;
15331;SDS011;7766;51.534;6.722;2023-11-22T13:11:26;6.00;;;3.97;;
15331;SDS011;7766;51.534;6.722;2023-11-22T13:13:52;11.70;;;4.63;;
15331;SDS011;7766;51.534;6.722;2023-11-22T13:16:18;7.83;;;4.43;;
15331;SDS011;7766;51.534;6.722;2023-11-22T13:18:44;11.87;;;4.13;;
15331;SDS011;7766;51.534;6.722;2023-11-22T13:21:10;4.80;;;3.40;;
15331;SDS011;7766;51.534;6.722;2023-11-22T13:23:36;6.27;;;3.83;;
15331;SDS011;7766;51.534;6.722;2023-11-22T13:26:02;7.43;;;4.27;;
15331;SDS011;7766;51.534;6.722;2023-11-22T13:28:30;5.80;;;3.93;;
15331;SDS011;7766;51.534;6.722;2023-11-22T13:30:56;6.00;;;3.73;;
15331;SDS011;7766;51.534;6.722;2023-11-22T13:33:22;6.80;;;4.30;;
15331;SDS011;7766;51.534;6.722;2023-11-22T13:35:47;7.27;;;4.47;;
15331;SDS011;7766;51.534;6.722;2023-11-22T13:38:13;5.70;;;3.70;;
15331;SDS011;7766;51.534;6.722;2023-11-22T13:40:41;6.07;;;3.77;;
15331;SDS011;7766;51.534;6.722;2023-11-22T13:43:10;7.93;;;5.30;;
15331;SDS011;7766;51.534;6.722;2023-11-22T13:45:38;10.13;;;5.03;;
15331;SDS011;7766;51.534;6.722;2023-11-22T13:48:06;7.90;;;3.93;;
15331;SDS011;7766;51.534;6.722;2023-11-22T13:50:34;4.90;;;3.27;;
15331;SDS011;7766;51.534;6.722;2023-11-22T13:53:00;7.27;;;3.40;;
15331;SDS011;7766;51.534;6.722;2023-11-22T13:55:28;5.60;;;3.40;;
15331;SDS011;7766;51.534;6.722;2023-11-22T13:57:55;5.93;;;3.43;;
15331;SDS011;7766;51.534;6.722;2023-11-22T14:00:23;5.10;;;3.43;;
15331;SDS011;7766;51.534;6.722;2023-11-22T14:02:55;5.97;;;3.37;;
15331;SDS011;7766;51.534;6.722;2023-11-22T14:05:22;5.60;;;3.10;;
15331;SDS011;7766;51.534;6.722;2023-11-22T14:07:48;5.43;;;3.80;;
15331;SDS011;7766;51.534;6.722;2023-11-22T14:10:14;6.07;;;3.50;;
15331;SDS011;7766;51.534;6.722;2023-11-22T14:12:43;6.77;;;3.67;;
15331;SDS011;7766;51.534;6.722;2023-11-22T14:15:10;6.20;;;3.77;;
15331;SDS011;7766;51.534;6.722;2023-11-22T14:17:36;5.97;;;3.97;;
15331;SDS011;7766;51.534;6.722;2023-11-22T14:20:15;5.87;;;4.33;;
15331;SDS011;7766;51.534;6.722;2023-11-22T14:22:41;5.30;;;3.97;;
15331;SDS011;7766;51.534;6.722;2023-11-22T14:25:10;5.53;;;4.13;;
15331;SDS011;7766;51.534;6.722;2023-11-22T14:27:36;5.10;;;2.60;;
15331;SDS011;7766;51.534;6.722;2023-11-22T14:30:03;5.17;;;2.17;;
15331;SDS011;7766;51.534;6.722;2023-11-22T14:32:32;3.93;;;2.00;;
15331;SDS011;7766;51.534;6.722;2023-11-22T14:34:59;3.83;;;2.27;;
15331;SDS011;7766;51.534;6.722;2023-11-22T14:37:27;4.70;;;2.23;;
15331;SDS011;7766;51.534;6.722;2023-11-22T14:39:53;4.63;;;2.33;;
15331;SDS011;7766;51.534;6.722;2023-11-22T14:42:19;3.73;;;2.03;;
15331;SDS011;7766;51.534;6.722;2023-11-22T14:44:45;2.43;;;1.83;;
15331;SDS011;7766;51.534;6.722;2023-11-22T14:47:10;2.73;;;2.23;;
15331;SDS011;7766;51.534;6.722;2023-11-22T14:49:48;4.27;;;2.77;;